Sct Breithorn — HBHC — position and weather

sailwx.info

Track history (hours):
 
Tides and Currents Weather Stations Pressure Air Temp Water Temp Dewpoint Dewpoint Depression Visibility Wind Speed Wind Dir Waves Ship Positions

Sct Breithorn

Last reported at 2017-May-26 01:15 UTC. Time now 2017-May-26 01:57 UTC.
Position N 49°35' W 004°03'.

Length 165 m; draft 8.5 m.

Type: Ship. MMSI: 269848000.

Date/timePositionNaut miles runAvg speedWind from/ knotsBaromVisibWave heightAir tempDewpointWater temp
2017-May-26 01:15N 49°35' W 004°03'413.9
2017-May-26 01:00N 49°37' W 003°59'814.2
2017-May-26 00:27N 49°41' W 003°48'814.6
2017-May-25 23:55N 49°45' W 003°38'614.5
2017-May-25 23:30N 49°48' W 003°30'714.4
2017-May-25 23:00N 49°51' W 003°21'713.9
2017-May-25 22:30N 49°54' W 003°11'713.3
2017-May-25 22:01N 49°57' W 003°02'712.5
2017-May-25 21:28N 50°00' W 002°52'511.6
2017-May-25 21:01N 50°02' W 002°44'1710.1
2017-May-25 19:20N 50°06' W 002°19'3 9.2
2017-May-25 19:00N 50°07' W 002°14'8 9.3
2017-May-25 18:10N 50°09' W 002°03'2 9.8
2017-May-25 17:58N 50°10' W 001°60'510.3
2017-May-25 17:30N 50°11' W 001°53'611.2
2017-May-25 17:00N 50°13' W 001°44'612.2
2017-May-25 16:29N 50°15' W 001°35'613.3
2017-May-25 16:00N 50°16' W 001°25'714.3
2017-May-25 15:30N 50°18' W 001°14'815.4
2017-May-25 14:59N 50°21' W 001°02'815.9
2017-May-25 14:30N 50°23' W 000°51'1615.6
2017-May-25 13:30N 50°27' W 000°27'714.7
2017-May-25 13:00N 50°29' W 000°16'714.2
2017-May-25 12:30N 50°31' W 000°05'713.6
2017-May-25 12:00N 50°32' E 000°05'713.2
2017-May-25 11:30N 50°34' E 000°15'612.6
2017-May-25 11:00N 50°36' E 000°25'612.0
2017-May-25 10:30N 50°37' E 000°34'611.6
2017-May-25 10:00N 50°40' E 000°42'611.3
2017-May-25 09:30N 50°44' E 000°49'611.3
2017-May-25 09:00N 50°47' E 000°56'611.6
2017-May-25 08:30N 50°51' E 001°03'612.3
2017-May-25 08:00N 50°55' E 001°11'713.7
2017-May-25 07:30N 50°59' E 001°19'815.1
2017-May-25 07:00N 51°04' E 001°28'816.0
2017-May-25 06:30N 51°09' E 001°37'815.1
2017-May-25 06:00N 51°14' E 001°46'714.4
2017-May-25 05:30N 51°20' E 001°53'713.5
2017-May-25 05:00N 51°26' E 001°59'612.7
2017-May-25 04:30N 51°31' E 002°06'612.2
2017-May-25 04:00N 51°35' E 002°12'611.7
2017-May-25 03:30N 51°39' E 002°19'611.4
2017-May-25 03:00N 51°44' E 002°25'711.1
2017-May-25 02:24N 51°49' E 002°32'410.8
2017-May-25 02:00N 51°52' E 002°36'2710.7
2017-May-24 23:27N 52°15' E 003°01'1112.2
2017-May-24 22:32N 52°13' E 003°19'112.6
2017-May-24 22:30N 52°13' E 003°20'712.5
2017-May-24 21:56N 52°12' E 003°31'612.8
2017-May-24 21:29N 52°11' E 003°40'2 3.8
2017-May-24 21:00N 52°11' E 003°43'0 0.0
2017-May-24 20:04N 52°11' E 003°43'0 0.0
2017-May-24 19:58N 52°11' E 003°43'0 0.0
2017-May-24 19:12N 52°11' E 003°43'0 0.0
2017-May-24 18:51N 52°11' E 003°43'0 0.0
2017-May-24 18:28N 52°11' E 003°43'0 0.0
2017-May-24 17:24N 52°11' E 003°43'0 0.1
2017-May-24 17:00N 52°11' E 003°43'0 0.1
2017-May-24 15:22N 52°11' E 003°43'0 0.0
2017-May-24 14:00N 52°11' E 003°43'0 0.0
2017-May-24 13:04N 52°11' E 003°43'0 0.0
2017-May-24 12:48N 52°11' E 003°43'0 0.0
2017-May-24 12:18N 52°11' E 003°43'0 0.0
2017-May-24 11:57N 52°11' E 003°43'0 0.1
2017-May-24 11:30N 52°11' E 003°43'0 0.4
2017-May-24 11:00N 52°11' E 003°43'0 0.1
2017-May-24 10:30N 52°11' E 003°43'0 0.0
2017-May-24 10:00N 52°11' E 003°43'0 0.0
2017-May-24 09:24N 52°11' E 003°43'0 0.0
2017-May-24 08:58N 52°11' E 003°43'0 0.0
2017-May-24 08:30N 52°11' E 003°43'0 0.0
2017-May-24 07:58N 52°11' E 003°43'0 0.0
2017-May-24 07:27N 52°11' E 003°43'0 0.0
2017-May-24 06:54N 52°11' E 003°43'0 0.0
2017-May-24 06:30N 52°11' E 003°43'0 0.0
2017-May-24 06:00N 52°11' E 003°43'0 0.1
2017-May-24 05:30N 52°11' E 003°43'0 0.1
2017-May-24 04:57N 52°11' E 003°43'0 0.1
2017-May-24 04:28N 52°11' E 003°43'0 0.1
2017-May-24 03:34N 52°11' E 003°43'0 0.1
2017-May-24 03:16N 52°11' E 003°43'0 0.0
2017-May-24 03:00N 52°11' E 003°43'0 0.0
2017-May-24 02:24N 52°11' E 003°43'0 0.0
2017-May-24 02:00N 52°11' E 003°43'0 0.0
2017-May-24 00:48N 52°11' E 003°43'0 0.1
2017-May-24 00:30N 52°11' E 003°43'3 5.5
2017-May-23 23:55N 52°12' E 003°39'512.4
2017-May-23 23:30N 52°14' E 003°31'812.1
2017-May-23 22:50N 52°19' E 003°20'6211.2
2017-May-23 17:19N 53°21' E 003°29'33412.1
2017-May-22 13:46N 57°47' E 009°24'311.4
2017-May-22 13:30N 57°49' E 009°29'611.2
2017-May-22 13:00N 57°51' E 009°39'611.4
2017-May-22 12:27N 57°51' E 009°51'511.4
2017-May-22 12:00N 57°51' E 010°01'1511.2
2017-May-22 10:39N 57°51' E 010°29'211.0
2017-May-22 10:30N 57°51' E 010°32'611.0
2017-May-22 09:59N 57°50' E 010°43'511.3
2017-May-22 09:30N 57°47' E 010°50'611.9
2017-May-22 09:00N 57°42' E 010°58'612.5
2017-May-22 08:30N 57°38' E 011°06'612.8
2017-May-22 08:00N 57°33' E 011°15'612.6
2017-May-22 07:30N 57°29' E 011°24'611.8
2017-May-22 06:59N 57°24' E 011°28'611.5
2017-May-22 06:30N 57°18' E 011°32'611.6
2017-May-22 05:58N 57°12' E 011°36'611.7
2017-May-22 05:29N 57°07' E 011°39'911.7
2017-May-22 04:45N 56°59' E 011°45'311.5
2017-May-22 04:29N 56°56' E 011°46'611.3
2017-May-22 03:58N 56°51' E 011°50'511.6
2017-May-22 03:30N 56°46' E 011°53'612.2
2017-May-22 03:00N 56°40' E 011°48'612.4
2017-May-22 02:30N 56°35' E 011°43'3112.2
2017-May-21 23:56N 56°08' E 011°13'5210.5
2017-May-21 18:58N 55°17' E 011°04'610.6
2017-May-21 18:27N 55°11' E 011°04'511.1
2017-May-21 18:00N 55°06' E 011°03'611.4
2017-May-21 17:28N 55°00' E 011°02'611.9
2017-May-21 17:00N 54°56' E 010°56'612.0
2017-May-21 16:30N 54°50' E 010°52'713.1
2017-May-21 16:00N 54°44' E 010°53'611.9
2017-May-21 15:30N 54°40' E 011°00'612.3
2017-May-21 15:00N 54°36' E 011°09'1212.1
2017-May-21 14:00N 54°31' E 011°28'612.0
2017-May-21 13:30N 54°28' E 011°37'1411.6
2017-May-21 12:16N 54°26' E 012°01'311.5
2017-May-21 12:00N 54°26' E 012°07'611.7
2017-May-21 11:30N 54°31' E 012°11'612.2
2017-May-21 11:00N 54°37' E 012°15'2911.8
2017-May-21 08:32N 54°47' E 013°02'312.0
2017-May-21 08:19N 54°47' E 013°07'612.2
2017-May-21 07:51N 54°47' E 013°17'512.8
2017-May-21 07:28N 54°47' E 013°25'612.3
2017-May-21 06:59N 54°46' E 013°35'812.3
2017-May-21 06:20N 54°44' E 013°48'512.2
2017-May-21 05:56N 54°42' E 013°57'512.2
2017-May-21 05:29N 54°40' E 014°06'612.0
2017-May-21 05:00N 54°39' E 014°15'911.6
2017-May-21 04:15N 54°38' E 014°30'712.1
2017-May-21 03:38N 54°39' E 014°43'312.1
2017-May-21 03:25N 54°39' E 014°47'512.2
2017-May-21 03:00N 54°40' E 014°56'712.3
2017-May-21 02:28N 54°41' E 015°07'10311.9
2017-May-20 17:49N 54°58' E 018°04'611.5
2017-May-20 17:20N 54°59' E 018°14'411.6
2017-May-20 16:59N 54°59' E 018°21'611.8
2017-May-20 16:30N 54°60' E 018°30'611.7
2017-May-20 16:00N 55°01' E 018°41'611.5
2017-May-20 15:30N 54°58' E 018°50'611.5
2017-May-20 15:00N 54°56' E 018°59'1211.6
2017-May-20 14:00N 54°51' E 019°17'611.7
2017-May-20 13:30N 54°48' E 019°26'611.6
2017-May-20 13:00N 54°45' E 019°35'612.0
2017-May-20 12:30N 54°42' E 019°44'510.9
2017-May-20 12:00N 54°39' E 019°51'3 5.6
2017-May-20 11:30N 54°38' E 019°56'  
2017-May-17 03:40N 54°41' E 020°12'0 0.2
2017-May-17 03:30N 54°41' E 020°12'4 6.0
2017-May-17 02:52N 54°39' E 020°06'4 9.9
2017-May-17 02:30N 54°38' E 020°00'4 8.8
2017-May-17 02:00N 54°38' E 019°53'3 5.1
2017-May-17 01:30N 54°39' E 019°49'2 2.9
2017-May-17 00:59N 54°38' E 019°48'0 0.1
2017-May-17 00:29N 54°38' E 019°48'0 0.0
2017-May-16 23:59N 54°38' E 019°48'0 0.0
2017-May-16 23:29N 54°38' E 019°48'0 0.0
2017-May-16 22:56N 54°38' E 019°48'0 0.0
2017-May-16 22:29N 54°38' E 019°48'0 0.0
2017-May-16 21:59N 54°38' E 019°48'0 0.1
2017-May-16 21:30N 54°38' E 019°48'1 2.3
2017-May-16 21:00N 54°38' E 019°46'511.0
2017-May-16 20:30N 54°43' E 019°40'612.6
2017-May-16 20:01N 54°46' E 019°31'714.0
2017-May-16 19:30N 54°49' E 019°20'714.1
2017-May-16 19:00N 54°52' E 019°09'713.8
2017-May-16 18:30N 54°55' E 018°58'713.8
2017-May-16 18:01N 54°58' E 018°47'713.8
2017-May-16 17:30N 55°00' E 018°36'713.7
2017-May-16 17:00N 54°59' E 018°24'713.6
2017-May-16 16:30N 54°59' E 018°12'713.5
2017-May-16 16:00N 54°58' E 018°01'713.5
2017-May-16 15:30N 54°56' E 017°49'713.3
2017-May-16 15:00N 54°55' E 017°38'1313.3
2017-May-16 14:00N 54°52' E 017°16'713.3
2017-May-16 13:30N 54°50' E 017°04'713.4
2017-May-16 13:00N 54°48' E 016°53'2313.7
2017-May-16 11:21N 54°45' E 016°14'514.1
2017-May-16 11:00N 54°44' E 016°06'814.2
2017-May-16 10:25N 54°43' E 015°52'914.1
2017-May-16 09:47N 54°42' E 015°36'414.1
2017-May-16 09:31N 54°41' E 015°30'913.9
2017-May-16 08:52N 54°40' E 015°14'613.8
2017-May-16 08:27N 54°39' E 015°05'913.8
2017-May-16 07:49N 54°38' E 014°50'514.0
2017-May-16 07:28N 54°37' E 014°41'714.0
2017-May-16 06:59N 54°36' E 014°30'713.6
2017-May-16 06:30N 54°36' E 014°19'814.2
2017-May-16 05:58N 54°39' E 014°06'614.0
2017-May-16 05:30N 54°41' E 013°56'713.9
2017-May-16 05:00N 54°44' E 013°44'713.9
2017-May-16 04:29N 54°45' E 013°32'714.2
2017-May-16 04:00N 54°45' E 013°20'714.1
2017-May-16 03:30N 54°46' E 013°08'714.0
2017-May-16 03:01N 54°46' E 012°56'713.4
2017-May-16 02:30N 54°45' E 012°45'714.1
2017-May-16 02:01N 54°42' E 012°34'  
Track history (hours):
 
Tides and Currents Weather Stations Pressure Air Temp Water Temp Dewpoint Dewpoint Depression Visibility Wind Speed Wind Dir Waves Ship Positions

Sct Breithorn

Last reported at 2017-May-26 01:15 UTC. Time now 2017-May-26 01:57 UTC.
Position N 49°35' W 004°03'.

Length 165 m; draft 8.5 m.

Type: Ship. MMSI: 269848000.

Date/timePositionNaut miles runAvg speedWind from/ knotsBaromVisibWave heightAir tempDewpointWater temp
2017-May-26 01:15N 49°35' W 004°03'413.9
2017-May-26 01:00N 49°37' W 003°59'814.2
2017-May-26 00:27N 49°41' W 003°48'814.6
2017-May-25 23:55N 49°45' W 003°38'614.5
2017-May-25 23:30N 49°48' W 003°30'714.4
2017-May-25 23:00N 49°51' W 003°21'713.9
2017-May-25 22:30N 49°54' W 003°11'713.3
2017-May-25 22:01N 49°57' W 003°02'712.5
2017-May-25 21:28N 50°00' W 002°52'511.6
2017-May-25 21:01N 50°02' W 002°44'1710.1
2017-May-25 19:20N 50°06' W 002°19'3 9.2
2017-May-25 19:00N 50°07' W 002°14'8 9.3
2017-May-25 18:10N 50°09' W 002°03'2 9.8
2017-May-25 17:58N 50°10' W 001°60'510.3
2017-May-25 17:30N 50°11' W 001°53'611.2
2017-May-25 17:00N 50°13' W 001°44'612.2
2017-May-25 16:29N 50°15' W 001°35'613.3
2017-May-25 16:00N 50°16' W 001°25'714.3
2017-May-25 15:30N 50°18' W 001°14'815.4
2017-May-25 14:59N 50°21' W 001°02'815.9
2017-May-25 14:30N 50°23' W 000°51'1615.6
2017-May-25 13:30N 50°27' W 000°27'714.7
2017-May-25 13:00N 50°29' W 000°16'714.2
2017-May-25 12:30N 50°31' W 000°05'713.6
2017-May-25 12:00N 50°32' E 000°05'713.2
2017-May-25 11:30N 50°34' E 000°15'612.6
2017-May-25 11:00N 50°36' E 000°25'612.0
2017-May-25 10:30N 50°37' E 000°34'611.6
2017-May-25 10:00N 50°40' E 000°42'611.3
2017-May-25 09:30N 50°44' E 000°49'611.3
2017-May-25 09:00N 50°47' E 000°56'611.6
2017-May-25 08:30N 50°51' E 001°03'612.3
2017-May-25 08:00N 50°55' E 001°11'713.7
2017-May-25 07:30N 50°59' E 001°19'815.1
2017-May-25 07:00N 51°04' E 001°28'816.0
2017-May-25 06:30N 51°09' E 001°37'815.1
2017-May-25 06:00N 51°14' E 001°46'714.4
2017-May-25 05:30N 51°20' E 001°53'713.5
2017-May-25 05:00N 51°26' E 001°59'612.7
2017-May-25 04:30N 51°31' E 002°06'612.2
2017-May-25 04:00N 51°35' E 002°12'611.7
2017-May-25 03:30N 51°39' E 002°19'611.4
2017-May-25 03:00N 51°44' E 002°25'711.1
2017-May-25 02:24N 51°49' E 002°32'410.8
2017-May-25 02:00N 51°52' E 002°36'2710.7
2017-May-24 23:27N 52°15' E 003°01'1112.2
2017-May-24 22:32N 52°13' E 003°19'112.6
2017-May-24 22:30N 52°13' E 003°20'712.5
2017-May-24 21:56N 52°12' E 003°31'612.8
2017-May-24 21:29N 52°11' E 003°40'2 3.8
2017-May-24 21:00N 52°11' E 003°43'0 0.0
2017-May-24 20:04N 52°11' E 003°43'0 0.0
2017-May-24 19:58N 52°11' E 003°43'0 0.0
2017-May-24 19:12N 52°11' E 003°43'0 0.0
2017-May-24 18:51N 52°11' E 003°43'0 0.0
2017-May-24 18:28N 52°11' E 003°43'0 0.0
2017-May-24 17:24N 52°11' E 003°43'0 0.1
2017-May-24 17:00N 52°11' E 003°43'0 0.1
2017-May-24 15:22N 52°11' E 003°43'0 0.0
2017-May-24 14:00N 52°11' E 003°43'0 0.0
2017-May-24 13:04N 52°11' E 003°43'0 0.0
2017-May-24 12:48N 52°11' E 003°43'0 0.0
2017-May-24 12:18N 52°11' E 003°43'0 0.0
2017-May-24 11:57N 52°11' E 003°43'0 0.1
2017-May-24 11:30N 52°11' E 003°43'0 0.4
2017-May-24 11:00N 52°11' E 003°43'0 0.1
2017-May-24 10:30N 52°11' E 003°43'0 0.0
2017-May-24 10:00N 52°11' E 003°43'0 0.0
2017-May-24 09:24N 52°11' E 003°43'0 0.0
2017-May-24 08:58N 52°11' E 003°43'0 0.0
2017-May-24 08:30N 52°11' E 003°43'0 0.0
2017-May-24 07:58N 52°11' E 003°43'0 0.0
2017-May-24 07:27N 52°11' E 003°43'0 0.0
2017-May-24 06:54N 52°11' E 003°43'0 0.0
2017-May-24 06:30N 52°11' E 003°43'0 0.0
2017-May-24 06:00N 52°11' E 003°43'0 0.1
2017-May-24 05:30N 52°11' E 003°43'0 0.1
2017-May-24 04:57N 52°11' E 003°43'0 0.1
2017-May-24 04:28N 52°11' E 003°43'0 0.1
2017-May-24 03:34N 52°11' E 003°43'0 0.1
2017-May-24 03:16N 52°11' E 003°43'0 0.0
2017-May-24 03:00N 52°11' E 003°43'0 0.0
2017-May-24 02:24N 52°11' E 003°43'0 0.0
2017-May-24 02:00N 52°11' E 003°43'0 0.0
2017-May-24 00:48N 52°11' E 003°43'0 0.1
2017-May-24 00:30N 52°11' E 003°43'3 5.5
2017-May-23 23:55N 52°12' E 003°39'512.4
2017-May-23 23:30N 52°14' E 003°31'812.1
2017-May-23 22:50N 52°19' E 003°20'6211.2
2017-May-23 17:19N 53°21' E 003°29'33412.1
2017-May-22 13:46N 57°47' E 009°24'311.4
2017-May-22 13:30N 57°49' E 009°29'611.2
2017-May-22 13:00N 57°51' E 009°39'611.4
2017-May-22 12:27N 57°51' E 009°51'511.4
2017-May-22 12:00N 57°51' E 010°01'1511.2
2017-May-22 10:39N 57°51' E 010°29'211.0
2017-May-22 10:30N 57°51' E 010°32'611.0
2017-May-22 09:59N 57°50' E 010°43'511.3
2017-May-22 09:30N 57°47' E 010°50'611.9
2017-May-22 09:00N 57°42' E 010°58'612.5
2017-May-22 08:30N 57°38' E 011°06'612.8
2017-May-22 08:00N 57°33' E 011°15'612.6
2017-May-22 07:30N 57°29' E 011°24'611.8
2017-May-22 06:59N 57°24' E 011°28'611.5
2017-May-22 06:30N 57°18' E 011°32'611.6
2017-May-22 05:58N 57°12' E 011°36'611.7
2017-May-22 05:29N 57°07' E 011°39'911.7
2017-May-22 04:45N 56°59' E 011°45'311.5
2017-May-22 04:29N 56°56' E 011°46'611.3
2017-May-22 03:58N 56°51' E 011°50'511.6
2017-May-22 03:30N 56°46' E 011°53'612.2
2017-May-22 03:00N 56°40' E 011°48'612.4
2017-May-22 02:30N 56°35' E 011°43'3112.2
2017-May-21 23:56N 56°08' E 011°13'5210.5
2017-May-21 18:58N 55°17' E 011°04'610.6
2017-May-21 18:27N 55°11' E 011°04'511.1
2017-May-21 18:00N 55°06' E 011°03'611.4
2017-May-21 17:28N 55°00' E 011°02'611.9
2017-May-21 17:00N 54°56' E 010°56'612.0
2017-May-21 16:30N 54°50' E 010°52'713.1
2017-May-21 16:00N 54°44' E 010°53'611.9
2017-May-21 15:30N 54°40' E 011°00'612.3
2017-May-21 15:00N 54°36' E 011°09'1212.1
2017-May-21 14:00N 54°31' E 011°28'612.0
2017-May-21 13:30N 54°28' E 011°37'1411.6
2017-May-21 12:16N 54°26' E 012°01'311.5
2017-May-21 12:00N 54°26' E 012°07'611.7
2017-May-21 11:30N 54°31' E 012°11'612.2
2017-May-21 11:00N 54°37' E 012°15'2911.8
2017-May-21 08:32N 54°47' E 013°02'312.0
2017-May-21 08:19N 54°47' E 013°07'612.2
2017-May-21 07:51N 54°47' E 013°17'512.8
2017-May-21 07:28N 54°47' E 013°25'612.3
2017-May-21 06:59N 54°46' E 013°35'812.3
2017-May-21 06:20N 54°44' E 013°48'512.2
2017-May-21 05:56N 54°42' E 013°57'512.2
2017-May-21 05:29N 54°40' E 014°06'612.0
2017-May-21 05:00N 54°39' E 014°15'911.6
2017-May-21 04:15N 54°38' E 014°30'712.1
2017-May-21 03:38N 54°39' E 014°43'312.1
2017-May-21 03:25N 54°39' E 014°47'512.2
2017-May-21 03:00N 54°40' E 014°56'712.3
2017-May-21 02:28N 54°41' E 015°07'10311.9
2017-May-20 17:49N 54°58' E 018°04'611.5
2017-May-20 17:20N 54°59' E 018°14'411.6
2017-May-20 16:59N 54°59' E 018°21'611.8
2017-May-20 16:30N 54°60' E 018°30'611.7
2017-May-20 16:00N 55°01' E 018°41'611.5
2017-May-20 15:30N 54°58' E 018°50'611.5
2017-May-20 15:00N 54°56' E 018°59'1211.6
2017-May-20 14:00N 54°51' E 019°17'611.7
2017-May-20 13:30N 54°48' E 019°26'611.6
2017-May-20 13:00N 54°45' E 019°35'612.0
2017-May-20 12:30N 54°42' E 019°44'510.9
2017-May-20 12:00N 54°39' E 019°51'3 5.6
2017-May-20 11:30N 54°38' E 019°56'  
2017-May-17 03:40N 54°41' E 020°12'0 0.2
2017-May-17 03:30N 54°41' E 020°12'4 6.0
2017-May-17 02:52N 54°39' E 020°06'4 9.9
2017-May-17 02:30N 54°38' E 020°00'4 8.8
2017-May-17 02:00N 54°38' E 019°53'3 5.1
2017-May-17 01:30N 54°39' E 019°49'2 2.9
2017-May-17 00:59N 54°38' E 019°48'0 0.1
2017-May-17 00:29N 54°38' E 019°48'0 0.0
2017-May-16 23:59N 54°38' E 019°48'0 0.0
2017-May-16 23:29N 54°38' E 019°48'0 0.0
2017-May-16 22:56N 54°38' E 019°48'0 0.0
2017-May-16 22:29N 54°38' E 019°48'0 0.0
2017-May-16 21:59N 54°38' E 019°48'0 0.1
2017-May-16 21:30N 54°38' E 019°48'1 2.3
2017-May-16 21:00N 54°38' E 019°46'511.0
2017-May-16 20:30N 54°43' E 019°40'612.6
2017-May-16 20:01N 54°46' E 019°31'714.0
2017-May-16 19:30N 54°49' E 019°20'714.1
2017-May-16 19:00N 54°52' E 019°09'713.8
2017-May-16 18:30N 54°55' E 018°58'713.8
2017-May-16 18:01N 54°58' E 018°47'713.8
2017-May-16 17:30N 55°00' E 018°36'713.7
2017-May-16 17:00N 54°59' E 018°24'713.6
2017-May-16 16:30N 54°59' E 018°12'713.5
2017-May-16 16:00N 54°58' E 018°01'713.5
2017-May-16 15:30N 54°56' E 017°49'713.3
2017-May-16 15:00N 54°55' E 017°38'1313.3
2017-May-16 14:00N 54°52' E 017°16'713.3
2017-May-16 13:30N 54°50' E 017°04'713.4
2017-May-16 13:00N 54°48' E 016°53'2313.7
2017-May-16 11:21N 54°45' E 016°14'514.1
2017-May-16 11:00N 54°44' E 016°06'814.2
2017-May-16 10:25N 54°43' E 015°52'914.1
2017-May-16 09:47N 54°42' E 015°36'414.1
2017-May-16 09:31N 54°41' E 015°30'913.9
2017-May-16 08:52N 54°40' E 015°14'613.8
2017-May-16 08:27N 54°39' E 015°05'913.8
2017-May-16 07:49N 54°38' E 014°50'514.0
2017-May-16 07:28N 54°37' E 014°41'714.0
2017-May-16 06:59N 54°36' E 014°30'713.6
2017-May-16 06:30N 54°36' E 014°19'814.2
2017-May-16 05:58N 54°39' E 014°06'614.0
2017-May-16 05:30N 54°41' E 013°56'713.9
2017-May-16 05:00N 54°44' E 013°44'713.9
2017-May-16 04:29N 54°45' E 013°32'714.2
2017-May-16 04:00N 54°45' E 013°20'714.1
2017-May-16 03:30N 54°46' E 013°08'714.0
2017-May-16 03:01N 54°46' E 012°56'713.4
2017-May-16 02:30N 54°45' E 012°45'714.1
2017-May-16 02:01N 54°42' E 012°34'  

Dump ship's entire track history